Irvington, NY

9:37 AM EDT on April 21, 2015 (GMT -0400)
Westchester County | | Change Station
CLOSE
Current Station
Airport
Location: White Plains,
Elevation: 436 ft
Nearby Weather Stations

Elev 436 ft 41.06 °N, 73.70 °W | Updated 41 minutes ago

Overcast
Overcast
55 °F
Feels Like 55 °F
N
9
Wind Variable Wind from West

Today
High -- | Low -- °F
--% Chance of Precip.
Yesterday
High -- | Low -- °F
Precip. -- in
6:07 AM 7:41 PM
Waxing Crescent, 10% visible
Pressure 29.60 in
Visibility 9.0 miles
Clouds Few 500 ft
Mostly Cloudy 3200 ft
Dew Point 52 °F
Humidity 89%
Rainfall 0.31 in
Snow Depth Not available.
UV 2 out of 12
Pollen 8.70 out of 12
Air Quality Not available.
Flu Activity Widespread
METAR KHPN 211256Z 27008KT 9SM FEW005 BKN032 13/11 A2960 RMK AO2 DZB31E54 SLP024 P0000 T01280111

More Conditions Fewer Conditions

Pressure 29.60 in
Visibility 9.0 miles
Clouds Few 500 ft
Mostly Cloudy 3200 ft
Dew Point 52 °F
Humidity 89%
Rainfall 0.31 in
Snow Depth Not available.
UV 2 out of 12
Pollen 8.70 out of 12
Air Quality Not available.
Flu Activity Widespread
METAR KHPN 211256Z 27008KT 9SM FEW005 BKN032 13/11 A2960 RMK AO2 DZB31E54 SLP024 P0000 T01280111

More Conditions Fewer Conditions

Nowcast | as of 9:04 am EDT on April 21, 2015

At 903 am EDT...Doppler radar indicated a line of showers...along a line extending from Riverdale to Elmont moving northeast at 65 mph. Locations impacted include... New York...Oyster Bay...Huntington...Yonkers...Paterson... Bridgeport...New Haven...Stamford...Norwalk...Danbury...New Rochelle...Passaic...White Plains...Wayne...Hackensack...Shelton... Valley stream...Naugatuck...Port Chester and Glen Cove. A brief period of moderate to heavy rainfall can be expected with this activity.

×

10-Day Weather Forecast

Almanac

Astronomy

Apr. 21, 2015 Rise Set
Actual Time
Civil Twilight
Nautical Twilight
Astronomical Twilight
Moon
Length of Visible Light
Length of Day
Tomorrow will be .
, % of the Moon is Illuminated

Today's Extremes

State Highs State Lows

Community

WunderPhotos

Upload Photos

1,815,379 photos uploaded!

WunderBlogs® & News

Nearby

Air Quality

  Air Quality AQ Index Pollutant
Not available.

Snow Depth

Station Depth Elevation

Earthquake Activity

City Distance Mag. Time & Date
Minimum magnitude displayed is 2.5.

Coastal Water Temperatures

Place Temperature

Stations

Nearby Weather Stations

Station Location Temp. Windchill Dew Point Humidity Wind Precip. Elev Updated Type